createdAt,value
2022-09-20T00:01:14.580Z,1.80
2022-09-20T00:03:47.007Z,2.00
2022-09-20T00:06:19.503Z,1.70
2022-09-20T00:08:47.087Z,1.87
2022-09-20T00:11:17.583Z,2.20
2022-09-20T00:13:45.955Z,2.47
2022-09-20T00:16:16.386Z,2.13
2022-09-20T00:18:43.612Z,1.80
2022-09-20T00:21:22.903Z,2.53
2022-09-20T00:23:49.658Z,1.70
2022-09-20T00:26:17.455Z,1.97
2022-09-20T00:28:44.205Z,2.13
2022-09-20T00:31:11.872Z,1.93
2022-09-20T00:33:57.475Z,2.03
2022-09-20T00:36:24.495Z,2.10
2022-09-20T00:38:58.733Z,1.40
2022-09-20T00:41:26.069Z,5.67
2022-09-20T00:43:53.453Z,1.80
2022-09-20T00:46:23.146Z,1.97
2022-09-20T00:48:53.068Z,2.10
2022-09-20T00:51:26.302Z,2.67
2022-09-20T00:53:54.907Z,1.90
2022-09-20T00:56:28.266Z,2.57
2022-09-20T00:59:19.881Z,2.27
2022-09-20T01:01:51.365Z,2.53
2022-09-20T01:04:22.341Z,1.80
2022-09-20T01:06:51.453Z,1.80
2022-09-20T01:09:18.176Z,2.10
2022-09-20T01:11:46.369Z,2.07
2022-09-20T01:14:18.841Z,1.80
2022-09-20T01:16:45.685Z,1.80
2022-09-20T01:19:27.267Z,2.53
2022-09-20T01:21:54.520Z,1.77
2022-09-20T01:24:37.900Z,2.40
2022-09-20T01:27:15.262Z,2.37
2022-09-20T01:29:55.746Z,2.40
2022-09-20T01:32:31.036Z,1.90
2022-09-20T01:35:00.892Z,2.10
2022-09-20T01:37:59.869Z,2.07
2022-09-20T01:40:35.904Z,2.23
2022-09-20T01:43:20.609Z,1.83
2022-09-20T01:45:49.817Z,4.83
2022-09-20T01:48:31.302Z,1.97
2022-09-20T01:51:10.515Z,1.43
2022-09-20T01:53:43.349Z,1.67
2022-09-20T01:56:27.915Z,1.20
2022-09-20T01:59:23.327Z,1.77
2022-09-20T02:01:53.860Z,1.73
2022-09-20T02:04:20.565Z,1.50
2022-09-20T02:07:18.958Z,1.40
2022-09-20T02:10:07.541Z,1.40
2022-09-20T02:12:56.451Z,1.67
2022-09-20T02:15:28.916Z,1.40
2022-09-20T02:18:09.363Z,2.13
2022-09-20T02:20:55.467Z,1.43
2022-09-20T02:23:36.760Z,1.63
2022-09-20T02:26:11.013Z,1.53
2022-09-20T02:29:16.277Z,2.80
2022-09-20T02:31:55.293Z,2.20
2022-09-20T02:34:48.866Z,1.90
2022-09-20T02:37:34.075Z,1.70
2022-09-20T02:40:28.624Z,2.30
2022-09-20T02:43:07.555Z,1.70
2022-09-20T02:45:52.143Z,2.23
2022-09-20T02:48:27.434Z,1.50
2022-09-20T02:51:05.998Z,1.70
2022-09-20T02:53:57.697Z,1.90
2022-09-20T03:36:13.055Z,2.87
2022-09-20T03:39:02.115Z,2.17
2022-09-20T03:41:58.962Z,1.97
2022-09-20T03:44:44.635Z,2.00
2022-09-20T03:47:44.973Z,2.60
2022-09-20T03:50:20.646Z,1.90
2022-09-20T03:53:08.084Z,4.40
2022-09-20T03:55:46.885Z,2.37
2022-09-20T03:58:36.849Z,1.60
2022-09-20T04:01:28.341Z,2.43
2022-09-20T04:04:30.912Z,3.90
2022-09-20T04:07:39.232Z,2.03
2022-09-20T04:10:17.790Z,2.57
2022-09-20T04:12:53.386Z,2.43
2022-09-20T04:15:36.298Z,2.10
2022-09-20T04:18:28.663Z,1.60
2022-09-20T04:21:17.822Z,2.73
2022-09-20T04:23:59.268Z,2.00
2022-09-20T04:26:39.084Z,2.50
2022-09-20T04:29:16.796Z,1.83
2022-09-20T04:32:01.681Z,3.50
2022-09-20T04:34:53.147Z,2.47
2022-09-20T04:37:39.785Z,2.30
2022-09-20T04:40:38.900Z,5.03
2022-09-20T04:43:14.816Z,5.30
2022-09-20T04:45:51.524Z,2.87
2022-09-20T04:48:46.612Z,3.20
2022-09-20T04:52:00.122Z,3.80
2022-09-20T04:55:00.803Z,3.93
2022-09-20T04:57:32.928Z,2.67
2022-09-20T05:00:13.545Z,2.27
2022-09-20T05:03:01.670Z,2.60
2022-09-20T05:05:44.884Z,3.73
2022-09-20T05:08:34.088Z,2.37
2022-09-20T05:11:01.502Z,2.97
2022-09-20T05:13:40.131Z,4.40
2022-09-20T05:16:22.352Z,6.67
2022-09-20T05:19:14.239Z,4.70
2022-09-20T05:22:06.717Z,3.27
2022-09-20T05:24:48.054Z,3.20
2022-09-20T05:27:46.552Z,2.50
2022-09-20T05:30:16.149Z,2.37
2022-09-20T05:33:05.677Z,2.20
2022-09-20T05:36:01.383Z,4.60
2022-09-20T05:38:51.807Z,3.17
2022-09-20T05:41:42.700Z,2.40
2022-09-20T05:44:24.042Z,1.90
2022-09-20T05:47:20.243Z,3.63
2022-09-20T05:50:04.509Z,2.00
2022-09-20T05:52:49.403Z,3.07
2022-09-20T05:55:39.432Z,3.00
2022-09-20T05:58:25.306Z,3.77
2022-09-20T06:01:13.317Z,1.90
2022-09-20T06:03:45.584Z,2.83
2022-09-20T06:06:22.605Z,1.67
2022-09-20T06:09:01.115Z,2.40
2022-09-20T06:11:30.900Z,3.53
2022-09-20T06:14:20.214Z,2.83
2022-09-20T06:17:41.339Z,3.17
2022-09-20T06:20:33.138Z,4.37
2022-09-20T06:23:04.020Z,1.80
2022-09-20T06:25:41.105Z,2.50
2022-09-20T06:28:18.666Z,4.77
2022-09-20T06:30:49.134Z,4.23
2022-09-20T06:33:21.494Z,4.13
2022-09-20T06:35:58.268Z,3.83
2022-09-20T06:39:10.239Z,2.90
2022-09-20T06:41:37.643Z,2.40
2022-09-20T06:44:05.411Z,2.17
2022-09-20T06:46:34.217Z,3.13
2022-09-20T06:49:01.074Z,2.17
2022-09-20T06:51:33.696Z,2.73
2022-09-20T06:54:00.550Z,2.80
2022-09-20T06:56:30.824Z,2.60
2022-09-20T06:58:57.699Z,4.20
2022-09-20T07:01:30.239Z,3.57
2022-09-20T07:03:58.609Z,3.83
2022-09-20T07:06:26.723Z,4.87
2022-09-20T07:08:53.509Z,3.23
2022-09-20T07:11:21.155Z,4.80
2022-09-20T07:13:52.064Z,4.50
2022-09-20T07:16:18.860Z,5.03
2022-09-20T07:18:45.738Z,4.37
2022-09-20T07:21:14.561Z,3.70
2022-09-20T07:23:41.279Z,2.90
2022-09-20T07:26:19.831Z,7.10
2022-09-20T07:28:46.719Z,3.80
2022-09-20T07:31:13.476Z,2.77
2022-09-20T07:33:40.179Z,2.63
2022-09-20T07:36:07.218Z,3.83
2022-09-20T07:38:33.971Z,2.67
2022-09-20T07:41:02.324Z,2.53
2022-09-20T07:43:30.485Z,5.53
2022-09-20T07:45:59.330Z,3.97
2022-09-20T07:48:29.871Z,4.00
2022-09-20T07:51:00.790Z,5.23
2022-09-20T07:53:27.470Z,3.73
2022-09-20T07:56:01.218Z,5.33
2022-09-20T07:58:29.518Z,2.57
2022-09-20T08:00:59.696Z,2.63
2022-09-20T08:03:27.121Z,3.13
2022-09-20T08:06:09.709Z,4.43
2022-09-20T08:08:43.393Z,2.43
2022-09-20T08:11:14.525Z,2.77
2022-09-20T08:16:31.692Z,3.50
2022-09-20T08:19:01.525Z,3.73
2022-09-20T08:21:33.167Z,8.33
2022-09-20T08:24:00.208Z,6.53
2022-09-20T08:26:28.559Z,3.50
2022-09-20T08:28:57.718Z,5.77
2022-09-20T08:31:27.249Z,7.17
2022-09-20T08:33:54.688Z,4.83
2022-09-20T08:36:25.732Z,10.63
2022-09-20T08:41:55.832Z,4.23
2022-09-20T08:44:27.546Z,4.60
2022-09-20T08:47:06.335Z,4.60
2022-09-20T08:49:33.902Z,5.37
2022-09-20T08:52:03.180Z,5.23
2022-09-20T08:54:33.314Z,4.53
2022-09-20T08:57:15.102Z,4.47
2022-09-20T08:59:42.217Z,4.37
2022-09-20T09:02:19.833Z,5.67
2022-09-20T09:04:48.728Z,7.47
2022-09-20T09:07:19.694Z,5.67
2022-09-20T09:09:48.314Z,6.10
2022-09-20T09:12:23.199Z,6.67
2022-09-20T09:14:54.951Z,4.53
2022-09-20T09:17:30.210Z,6.73
2022-09-20T09:19:58.929Z,8.67
2022-09-20T09:22:43.984Z,6.90
2022-09-20T09:25:32.165Z,7.00
2022-09-20T09:28:12.071Z,5.83
2022-09-20T09:30:44.235Z,5.03
2022-09-20T09:33:20.039Z,8.30
2022-09-20T09:36:03.554Z,5.90
2022-09-20T09:38:34.827Z,6.30
2022-09-20T09:41:17.690Z,7.57
2022-09-20T09:43:59.128Z,6.57
2022-09-20T09:46:31.000Z,5.50
2022-09-20T09:49:12.867Z,6.07
2022-09-20T09:51:43.274Z,6.37
2022-09-20T09:54:17.819Z,4.20
2022-09-20T09:57:15.917Z,4.03
2022-09-20T10:00:03.609Z,4.80
2022-09-20T10:02:50.755Z,5.63
2022-09-20T10:05:17.546Z,5.27
2022-09-20T10:08:06.636Z,4.33
2022-09-20T10:10:54.929Z,4.23
2022-09-20T10:13:21.591Z,5.20
2022-09-20T10:16:11.410Z,3.37
2022-09-20T10:18:42.598Z,5.03
2022-09-20T10:21:30.934Z,5.40
2022-09-20T10:24:13.376Z,4.77
2022-09-20T10:26:48.963Z,3.67
2022-09-20T10:29:18.994Z,4.40
2022-09-20T10:32:19.751Z,3.63
2022-09-20T10:35:14.198Z,4.07
2022-09-20T10:38:03.642Z,4.03
2022-09-20T10:40:51.776Z,5.13
2022-09-20T10:43:45.778Z,3.67
2022-09-20T10:46:53.115Z,4.97
2022-09-20T10:49:51.377Z,3.73
2022-09-20T10:52:42.583Z,4.80
2022-09-20T10:55:30.451Z,3.83
2022-09-20T10:58:24.692Z,4.27
2022-09-20T11:01:01.471Z,5.27
2022-09-20T11:04:07.160Z,3.97
2022-09-20T11:07:04.917Z,4.60
2022-09-20T11:09:37.934Z,3.60
2022-09-20T11:12:16.256Z,5.00
2022-09-20T11:14:57.091Z,3.43
2022-09-20T11:17:31.778Z,4.77
2022-09-20T11:20:07.716Z,4.50
2022-09-20T11:22:40.748Z,5.07
2022-09-20T11:25:21.540Z,4.37
2022-09-20T11:27:58.120Z,4.23
2022-09-20T11:30:25.245Z,4.87
2022-09-20T11:33:08.454Z,4.60
2022-09-20T11:35:46.801Z,4.60
2022-09-20T11:38:31.253Z,5.97
2022-09-20T11:41:26.189Z,5.03
2022-09-20T11:43:55.611Z,3.53
2022-09-20T11:46:29.176Z,3.30
2022-09-20T11:49:09.237Z,5.40
2022-09-20T11:52:08.054Z,4.13
2022-09-20T11:55:04.564Z,5.63
2022-09-20T11:57:31.750Z,4.27
2022-09-20T12:00:03.305Z,7.57
2022-09-20T12:02:48.515Z,5.37
2022-09-20T12:05:32.140Z,3.33
2022-09-20T12:08:01.410Z,5.17
2022-09-20T12:10:37.194Z,3.43
2022-09-20T12:13:19.844Z,4.23
2022-09-20T12:15:56.714Z,4.97
2022-09-20T12:18:36.574Z,4.77
2022-09-20T12:21:14.980Z,4.70
2022-09-20T12:23:55.003Z,5.77
2022-09-20T12:26:21.689Z,4.10
2022-09-20T12:28:51.483Z,3.50
2022-09-20T12:31:26.083Z,3.80
2022-09-20T12:33:59.158Z,3.33
2022-09-20T12:36:27.929Z,4.50
2022-09-20T12:39:00.424Z,4.70
2022-09-20T12:41:29.096Z,4.97
2022-09-20T12:44:23.018Z,4.73
2022-09-20T12:47:00.944Z,3.47
2022-09-20T12:50:04.420Z,4.03
2022-09-20T12:52:50.938Z,2.80
2022-09-20T12:55:29.942Z,2.90
2022-09-20T12:58:04.738Z,3.50
2022-09-20T13:00:42.578Z,5.40
2022-09-20T13:03:15.372Z,3.63
2022-09-20T13:05:47.060Z,6.60
2022-09-20T13:08:20.838Z,4.67
2022-09-20T13:10:50.626Z,4.77
2022-09-20T13:13:37.102Z,3.70
2022-09-20T13:16:06.449Z,4.17
2022-09-20T13:18:35.402Z,5.50
2022-09-20T13:21:06.683Z,4.77
2022-09-20T13:23:48.698Z,4.13
2022-09-20T13:26:17.692Z,3.23
2022-09-20T13:28:52.624Z,3.53
2022-09-20T13:31:22.166Z,3.30
2022-09-20T13:33:49.058Z,3.07
2022-09-20T13:36:23.950Z,2.87
2022-09-20T13:38:51.026Z,3.47
2022-09-20T13:41:18.014Z,3.10
2022-09-20T13:43:50.008Z,4.63
2022-09-20T13:46:17.928Z,2.17
2022-09-20T13:48:52.571Z,3.70
2022-09-20T13:51:28.015Z,2.53
2022-09-20T13:54:19.278Z,3.57
2022-09-20T13:56:46.140Z,2.60
2022-09-20T13:59:19.307Z,3.57
2022-09-20T14:01:51.893Z,4.20
2022-09-20T14:04:22.112Z,2.60
2022-09-20T14:06:51.043Z,2.90
2022-09-20T14:09:32.428Z,6.73
2022-09-20T14:12:00.109Z,4.73
2022-09-20T14:14:28.407Z,3.03
2022-09-20T14:16:57.233Z,3.67
2022-09-20T14:19:31.358Z,3.30
2022-09-20T14:22:03.260Z,3.20
2022-09-20T14:24:35.348Z,5.20
2022-09-20T14:27:20.954Z,4.07
2022-09-20T14:29:52.241Z,5.40
2022-09-20T14:32:26.557Z,6.00
2022-09-20T14:35:02.274Z,4.63
2022-09-20T14:37:31.396Z,4.47
2022-09-20T14:40:01.415Z,3.70
2022-09-20T14:42:30.954Z,6.87
2022-09-20T14:44:58.018Z,4.30
2022-09-20T14:47:57.044Z,5.27
2022-09-20T14:50:28.223Z,3.83
2022-09-20T14:53:23.297Z,3.80
2022-09-20T14:56:04.894Z,4.30
2022-09-20T14:58:32.097Z,3.40
2022-09-20T15:01:19.338Z,5.27
2022-09-20T15:03:46.130Z,4.27
2022-09-20T15:06:14.652Z,20.97
2022-09-20T15:08:46.379Z,8.97
2022-09-20T15:11:17.712Z,8.00
2022-09-20T15:13:44.537Z,3.57
2022-09-20T15:16:13.670Z,3.87
2022-09-20T15:18:44.725Z,2.67
2022-09-20T15:21:12.101Z,3.87
2022-09-20T15:23:40.174Z,3.17
2022-09-20T15:26:07.736Z,3.90
2022-09-20T15:28:34.897Z,3.03
2022-09-20T15:31:01.729Z,2.07
2022-09-20T15:33:31.471Z,2.20
2022-09-20T15:35:58.322Z,3.73
2022-09-20T15:38:27.018Z,4.10
2022-09-20T15:40:53.749Z,3.27
2022-09-20T15:43:24.155Z,2.50
2022-09-20T15:45:57.706Z,4.80
2022-09-20T15:48:26.697Z,4.30
2022-09-20T15:51:02.092Z,4.30
2022-09-20T15:53:37.486Z,5.73
2022-09-20T15:56:13.642Z,10.17
2022-09-20T15:58:46.746Z,8.57
2022-09-20T16:01:15.545Z,9.10
2022-09-20T16:03:43.367Z,8.00
2022-09-20T16:06:11.048Z,9.13
2022-09-20T16:08:40.189Z,5.23
2022-09-20T16:11:09.407Z,5.93
2022-09-20T16:13:37.575Z,7.13
2022-09-20T16:16:05.526Z,5.50
2022-09-20T16:18:50.994Z,6.00
2022-09-20T16:21:19.347Z,5.80
2022-09-20T16:23:56.680Z,6.07
2022-09-20T16:26:25.581Z,4.53
2022-09-20T16:28:53.339Z,4.87
2022-09-20T16:31:36.589Z,5.23
2022-09-20T16:34:05.448Z,3.67
2022-09-20T16:36:33.192Z,3.33
2022-09-20T16:38:59.991Z,2.93
2022-09-20T16:41:28.587Z,4.73
2022-09-20T16:43:55.852Z,4.07
2022-09-20T16:46:27.186Z,3.80
2022-09-20T16:48:59.242Z,2.50
2022-09-20T16:51:29.766Z,2.53
2022-09-20T16:53:56.458Z,4.33
2022-09-20T16:56:29.528Z,3.23
2022-09-20T16:58:56.833Z,3.00
2022-09-20T17:01:23.584Z,2.77
2022-09-20T17:03:51.163Z,2.50
2022-09-20T17:06:19.112Z,2.33
2022-09-20T17:08:46.764Z,2.97
2022-09-20T17:11:22.654Z,3.10
2022-09-20T17:13:51.530Z,2.30
2022-09-20T17:16:19.442Z,2.43
2022-09-20T17:18:46.325Z,3.10
2022-09-20T17:21:16.931Z,3.50
2022-09-20T17:23:50.606Z,4.33
2022-09-20T17:26:23.031Z,4.93
2022-09-20T17:28:51.496Z,5.47
2022-09-20T17:31:21.162Z,5.83
2022-09-20T17:33:47.867Z,7.80
2022-09-20T17:36:18.782Z,5.20
2022-09-20T17:38:46.698Z,4.40
2022-09-20T17:41:16.670Z,4.33
2022-09-20T17:43:44.839Z,3.30
2022-09-20T17:46:25.650Z,4.90
2022-09-20T17:48:55.532Z,16.33
2022-09-20T17:51:24.929Z,30.30
2022-09-20T17:53:52.996Z,47.67
2022-09-20T17:56:23.185Z,35.63
2022-09-20T17:58:50.611Z,28.50
2022-09-20T18:01:20.282Z,27.80
2022-09-20T18:03:51.692Z,18.30
2022-09-20T18:06:19.499Z,21.17
2022-09-20T18:08:52.390Z,17.80
2022-09-20T18:11:21.727Z,11.33
2022-09-20T18:13:48.811Z,8.97
2022-09-20T18:16:17.854Z,4.50
2022-09-20T18:18:46.470Z,4.77
2022-09-20T18:21:32.314Z,5.20
2022-09-20T18:24:10.089Z,5.87
2022-09-20T18:26:38.060Z,11.30
2022-09-20T18:29:23.589Z,10.30
2022-09-20T18:32:00.049Z,10.47
2022-09-20T18:34:37.273Z,5.17
2022-09-20T18:37:13.925Z,3.77
2022-09-20T18:43:34.442Z,2.33
2022-09-20T18:46:01.372Z,2.70
2022-09-20T18:48:33.441Z,3.77
2022-09-20T18:51:02.328Z,3.73
2022-09-20T18:54:31.399Z,3.70
2022-09-20T18:57:07.228Z,2.63
2022-09-20T18:59:37.499Z,2.20
2022-09-20T19:02:04.489Z,2.43
2022-09-20T19:05:22.883Z,3.20
2022-09-20T19:08:58.812Z,2.40
2022-09-20T19:11:58.888Z,2.33
2022-09-20T19:15:41.004Z,4.07
2022-09-20T19:19:37.271Z,3.60
2022-09-20T19:23:01.550Z,2.57
2022-09-20T19:26:01.145Z,4.00
2022-09-20T19:28:31.164Z,2.60
2022-09-20T19:33:55.380Z,2.90
2022-09-20T19:36:35.485Z,3.27
2022-09-20T19:40:15.508Z,4.27
2022-09-20T19:43:29.965Z,3.23
2022-09-20T19:46:51.756Z,2.90
2022-09-20T19:50:05.886Z,2.43
2022-09-20T19:52:50.033Z,2.80
2022-09-20T19:55:23.083Z,4.03
2022-09-20T19:58:15.837Z,3.60
2022-09-20T20:00:59.586Z,2.80
2022-09-20T20:03:41.627Z,2.47
2022-09-20T20:18:38.759Z,3.73
2022-09-20T20:32:55.493Z,2.57
2022-09-20T20:36:41.908Z,3.73
2022-09-20T20:52:56.802Z,3.00
2022-09-20T20:55:46.253Z,2.10
2022-09-20T21:22:18.593Z,2.27
2022-09-20T21:25:03.689Z,2.50
2022-09-20T21:27:46.591Z,2.83
2022-09-20T21:30:29.889Z,2.77
2022-09-20T21:33:11.001Z,5.67
2022-09-20T21:35:45.860Z,2.20
2022-09-20T21:38:15.529Z,2.73
2022-09-20T21:40:51.752Z,4.10
2022-09-20T21:43:30.712Z,2.63
2022-09-20T22:50:12.281Z,2.70
2022-09-20T22:52:38.995Z,5.50
2022-09-20T22:55:06.170Z,3.10
2022-09-20T22:57:32.818Z,2.50
2022-09-20T22:59:59.527Z,2.83
2022-09-20T23:02:26.210Z,2.47
2022-09-20T23:04:52.865Z,3.73
2022-09-20T23:07:19.540Z,3.30
2022-09-20T23:09:46.249Z,3.37
2022-09-20T23:12:12.927Z,5.90
2022-09-20T23:14:39.600Z,3.23
2022-09-20T23:17:06.664Z,4.43
2022-09-20T23:19:33.363Z,4.73
2022-09-20T23:22:00.019Z,4.10
2022-09-20T23:24:26.731Z,2.13
2022-09-20T23:26:53.423Z,3.70
2022-09-20T23:29:20.076Z,3.60
2022-09-20T23:31:47.801Z,2.77
2022-09-20T23:34:16.001Z,2.63
2022-09-20T23:36:43.364Z,2.70
2022-09-20T23:39:11.625Z,2.17
2022-09-20T23:41:39.087Z,2.20
2022-09-20T23:44:06.584Z,1.93
2022-09-20T23:46:34.205Z,3.13
2022-09-20T23:49:00.996Z,2.27
2022-09-20T23:51:28.944Z,4.90
2022-09-20T23:53:56.197Z,2.30
2022-09-20T23:56:23.917Z,2.83
2022-09-20T23:58:51.115Z,2.50
